Ludowici, Georgia
Current Conditions -  °F | °C
As of 8:35 PM on Tuesday 27 Jan 2015 (Local Time) from KJES Reporting Station
Clear Clear  
Wind Chill: 46°   Ceiling: Unl
Heat Index: 46°   Visibility: 10mi
Dew Point: 36°   Wind: 0mph
Humidity: 66%   Direction: NA
Pressure: 30.02"   Gusts: NA
Location:  31.71°N, 81.74°W
Report Text: KJES 280135Z AUTO 00000KT 10SM CLR 08/02 A3002 RMK AO2
Loading
Personal Weather Stations






























Interactive Weather Map New forecast layout! Learn more

10-Day Weather Forecast

Advertisements
Track Severe Weather on mobile